sensor_id;sensor_type;location;lat;lon;timestamp;P1;durP1;ratioP1;P2;durP2;ratioP2
50651;SDS011;66928;52.086;5.240;2023-05-15T05:18:45;33.71;;;28.1;;
50651;SDS011;66928;52.086;5.240;2023-05-15T05:20:21;35.5;;;29.8;;
50651;SDS011;66928;52.086;5.240;2023-05-15T05:23:33;35.71;;;29.8;;
50651;SDS011;66928;52.086;5.240;2023-05-15T05:25:09;39.21;;;30.8;;
50651;SDS011;66928;52.086;5.240;2023-05-15T05:29:59;37.4;;;29.9;;
50651;SDS011;66928;52.086;5.240;2023-05-15T05:31:35;42.9;;;33.3;;
50651;SDS011;66928;52.086;5.240;2023-05-15T05:33:11;35.1;;;29.3;;
50651;SDS011;66928;52.086;5.240;2023-05-15T05:34:47;37.9;;;29.1;;
50651;SDS011;66928;52.086;5.240;2023-05-15T05:37:59;32.9;;;27.2;;
50651;SDS011;66928;52.086;5.240;2023-05-15T05:39:36;36.21;;;30.1;;
50651;SDS011;66928;52.086;5.240;2023-05-15T05:41:11;36.6;;;29.6;;
50651;SDS011;66928;52.086;5.240;2023-05-15T05:44:23;28.8;;;25.8;;
50651;SDS011;66928;52.086;5.240;2023-05-15T05:46:00;33.21;;;26.5;;
50651;SDS011;66928;52.086;5.240;2023-05-15T05:47:36;33.6;;;28.4;;
50651;SDS011;66928;52.086;5.240;2023-05-15T05:50:49;31.0;;;26.6;;
50651;SDS011;66928;52.086;5.240;2023-05-15T05:52:25;31.1;;;27.2;;
50651;SDS011;66928;52.086;5.240;2023-05-15T05:54:01;29.0;;;25.5;;
50651;SDS011;66928;52.086;5.240;2023-05-15T05:55:37;29.2;;;24.7;;
50651;SDS011;66928;52.086;5.240;2023-05-15T05:58:49;29.1;;;24.5;;
50651;SDS011;66928;52.086;5.240;2023-05-15T06:00:25;27.9;;;24.3;;
50651;SDS011;66928;52.086;5.240;2023-05-15T06:02:02;28.1;;;25.1;;
50651;SDS011;66928;52.086;5.240;2023-05-15T06:05:17;27.8;;;24.9;;
50651;SDS011;66928;52.086;5.240;2023-05-15T06:06:52;25.9;;;23.1;;
50651;SDS011;66928;52.086;5.240;2023-05-15T06:08:28;27.1;;;24.2;;
50651;SDS011;66928;52.086;5.240;2023-05-15T06:11:41;26.9;;;23.2;;
50651;SDS011;66928;52.086;5.240;2023-05-15T06:13:17;26.7;;;23.1;;
50651;SDS011;66928;52.086;5.240;2023-05-15T06:14:53;27.6;;;23.0;;
50651;SDS011;66928;52.086;5.240;2023-05-15T06:18:05;25.8;;;23.0;;
50651;SDS011;66928;52.086;5.240;2023-05-15T06:19:41;27.3;;;23.7;;
50651;SDS011;66928;52.086;5.240;2023-05-15T06:21:17;26.8;;;23.3;;
50651;SDS011;66928;52.086;5.240;2023-05-15T06:22:53;26.8;;;22.5;;
50651;SDS011;66928;52.086;5.240;2023-05-15T06:26:05;28.0;;;25.0;;
50651;SDS011;66928;52.086;5.240;2023-05-15T06:27:41;27.9;;;24.0;;
50651;SDS011;66928;52.086;5.240;2023-05-15T06:29:18;27.3;;;23.6;;
50651;SDS011;66928;52.086;5.240;2023-05-15T06:32:29;26.7;;;22.5;;
50651;SDS011;66928;52.086;5.240;2023-05-15T06:34:06;27.7;;;24.6;;
50651;SDS011;66928;52.086;5.240;2023-05-15T06:35:42;25.3;;;22.3;;
50651;SDS011;66928;52.086;5.240;2023-05-15T06:38:55;25.0;;;22.4;;
50651;SDS011;66928;52.086;5.240;2023-05-15T06:40:30;26.4;;;21.5;;
50651;SDS011;66928;52.086;5.240;2023-05-15T06:42:07;24.8;;;21.8;;
50651;SDS011;66928;52.086;5.240;2023-05-15T06:43:43;25.4;;;22.4;;
50651;SDS011;66928;52.086;5.240;2023-05-15T06:46:56;26.9;;;24.0;;
50651;SDS011;66928;52.086;5.240;2023-05-15T06:48:33;25.7;;;22.9;;
50651;SDS011;66928;52.086;5.240;2023-05-15T06:50:09;25.7;;;22.9;;
50651;SDS011;66928;52.086;5.240;2023-05-15T06:53:21;21.3;;;18.5;;
50651;SDS011;66928;52.086;5.240;2023-05-15T06:54:58;21.7;;;19.41;;
50651;SDS011;66928;52.086;5.240;2023-05-15T06:59:46;22.1;;;19.8;;
50651;SDS011;66928;52.086;5.240;2023-05-15T07:01:23;22.3;;;20.0;;
50651;SDS011;66928;52.086;5.240;2023-05-15T07:02:59;22.4;;;20.2;;
50651;SDS011;66928;52.086;5.240;2023-05-15T07:06:11;23.1;;;20.6;;
50651;SDS011;66928;52.086;5.240;2023-05-15T07:07:47;22.6;;;20.2;;
50651;SDS011;66928;52.086;5.240;2023-05-15T07:10:59;23.8;;;21.2;;
50651;SDS011;66928;52.086;5.240;2023-05-15T07:14:12;22.9;;;20.5;;
50651;SDS011;66928;52.086;5.240;2023-05-15T07:15:48;21.3;;;18.7;;
50651;SDS011;66928;52.086;5.240;2023-05-15T07:17:24;19.91;;;18.0;;
50651;SDS011;66928;52.086;5.240;2023-05-15T07:20:37;20.11;;;18.11;;
50651;SDS011;66928;52.086;5.240;2023-05-15T07:22:14;21.1;;;18.3;;
50651;SDS011;66928;52.086;5.240;2023-05-15T07:23:51;21.5;;;19.3;;
50651;SDS011;66928;52.086;5.240;2023-05-15T07:27:04;21.7;;;19.5;;
50651;SDS011;66928;52.086;5.240;2023-05-15T07:28:40;20.7;;;18.61;;
50651;SDS011;66928;52.086;5.240;2023-05-15T07:30:17;20.5;;;18.5;;
50651;SDS011;66928;52.086;5.240;2023-05-15T07:31:54;20.0;;;18.0;;
50651;SDS011;66928;52.086;5.240;2023-05-15T07:35:06;22.6;;;18.3;;
50651;SDS011;66928;52.086;5.240;2023-05-15T07:36:42;19.91;;;17.91;;
50651;SDS011;66928;52.086;5.240;2023-05-15T07:38:18;20.9;;;18.61;;
50651;SDS011;66928;52.086;5.240;2023-05-15T07:41:30;19.91;;;17.8;;
50651;SDS011;66928;52.086;5.240;2023-05-15T07:43:07;20.2;;;18.2;;
50651;SDS011;66928;52.086;5.240;2023-05-15T07:44:44;19.5;;;17.41;;
50651;SDS011;66928;52.086;5.240;2023-05-15T07:47:56;21.3;;;18.91;;
50651;SDS011;66928;52.086;5.240;2023-05-15T07:49:32;19.61;;;17.61;;
50651;SDS011;66928;52.086;5.240;2023-05-15T07:51:08;18.7;;;16.9;;
50651;SDS011;66928;52.086;5.240;2023-05-15T07:52:44;20.7;;;18.61;;
50651;SDS011;66928;52.086;5.240;2023-05-15T07:55:57;20.0;;;18.0;;
50651;SDS011;66928;52.086;5.240;2023-05-15T07:57:33;21.3;;;19.0;;
50651;SDS011;66928;52.086;5.240;2023-05-15T07:59:09;20.5;;;18.41;;
50651;SDS011;66928;52.086;5.240;2023-05-15T08:02:21;22.1;;;18.5;;
50651;SDS011;66928;52.086;5.240;2023-05-15T08:03:58;22.3;;;19.91;;
50651;SDS011;66928;52.086;5.240;2023-05-15T08:05:33;21.1;;;18.91;;
50651;SDS011;66928;52.086;5.240;2023-05-15T08:08:48;20.9;;;18.7;;
50651;SDS011;66928;52.086;5.240;2023-05-15T08:10:24;20.9;;;18.8;;
50651;SDS011;66928;52.086;5.240;2023-05-15T08:12:16;21.8;;;19.61;;
50651;SDS011;66928;52.086;5.240;2023-05-15T08:13:53;20.41;;;17.61;;
50651;SDS011;66928;52.086;5.240;2023-05-15T08:17:06;20.41;;;18.2;;
50651;SDS011;66928;52.086;5.240;2023-05-15T08:18:42;22.7;;;19.2;;
50651;SDS011;66928;52.086;5.240;2023-05-15T08:20:18;22.2;;;19.2;;
50651;SDS011;66928;52.086;5.240;2023-05-15T08:23:30;20.41;;;18.3;;
50651;SDS011;66928;52.086;5.240;2023-05-15T08:25:07;21.6;;;19.3;;
50651;SDS011;66928;52.086;5.240;2023-05-15T08:26:44;22.0;;;19.7;;
50651;SDS011;66928;52.086;5.240;2023-05-15T08:28:20;21.1;;;18.91;;
50651;SDS011;66928;52.086;5.240;2023-05-15T08:31:32;23.4;;;21.0;;
50651;SDS011;66928;52.086;5.240;2023-05-15T08:33:08;22.8;;;19.8;;
50651;SDS011;66928;52.086;5.240;2023-05-15T08:34:44;22.8;;;19.41;;
50651;SDS011;66928;52.086;5.240;2023-05-15T08:37:57;23.4;;;20.11;;
50651;SDS011;66928;52.086;5.240;2023-05-15T08:39:33;22.9;;;20.41;;
50651;SDS011;66928;52.086;5.240;2023-05-15T08:41:10;22.6;;;20.2;;
50651;SDS011;66928;52.086;5.240;2023-05-15T08:44:37;22.7;;;20.2;;
50651;SDS011;66928;52.086;5.240;2023-05-15T08:46:14;23.1;;;20.7;;
50651;SDS011;66928;52.086;5.240;2023-05-15T08:47:52;24.1;;;20.5;;
50651;SDS011;66928;52.086;5.240;2023-05-15T08:49:32;22.9;;;20.5;;
50651;SDS011;66928;52.086;5.240;2023-05-15T08:52:54;25.0;;;20.5;;
50651;SDS011;66928;52.086;5.240;2023-05-15T08:54:32;21.9;;;19.61;;
50651;SDS011;66928;52.086;5.240;2023-05-15T08:56:08;22.7;;;20.3;;
50651;SDS011;66928;52.086;5.240;2023-05-15T08:57:46;22.3;;;19.91;;
50651;SDS011;66928;52.086;5.240;2023-05-15T09:00:59;22.0;;;19.7;;
50651;SDS011;66928;52.086;5.240;2023-05-15T09:02:35;23.9;;;21.4;;
50651;SDS011;66928;52.086;5.240;2023-05-15T09:04:12;21.4;;;19.11;;
50651;SDS011;66928;52.086;5.240;2023-05-15T09:07:27;21.4;;;18.41;;
50651;SDS011;66928;52.086;5.240;2023-05-15T09:09:05;20.0;;;17.91;;
50651;SDS011;66928;52.086;5.240;2023-05-15T09:10:44;20.6;;;18.5;;
50651;SDS011;66928;52.086;5.240;2023-05-15T09:12:20;21.6;;;19.3;;
50651;SDS011;66928;52.086;5.240;2023-05-15T09:15:35;24.5;;;21.4;;
50651;SDS011;66928;52.086;5.240;2023-05-15T09:17:13;23.6;;;21.2;;
50651;SDS011;66928;52.086;5.240;2023-05-15T09:18:49;27.3;;;24.5;;
50651;SDS011;66928;52.086;5.240;2023-05-15T09:22:15;27.0;;;24.1;;
50651;SDS011;66928;52.086;5.240;2023-05-15T09:23:53;30.0;;;25.1;;
50651;SDS011;66928;52.086;5.240;2023-05-15T09:25:31;30.6;;;26.5;;
50651;SDS011;66928;52.086;5.240;2023-05-15T09:27:11;34.6;;;29.1;;
50651;SDS011;66928;52.086;5.240;2023-05-15T09:30:24;37.4;;;30.1;;
50651;SDS011;66928;52.086;5.240;2023-05-15T09:32:02;38.5;;;32.0;;
50651;SDS011;66928;52.086;5.240;2023-05-15T09:33:40;39.6;;;31.5;;
50651;SDS011;66928;52.086;5.240;2023-05-15T09:35:31;40.9;;;32.3;;
50651;SDS011;66928;52.086;5.240;2023-05-15T09:39:03;39.9;;;31.8;;
50651;SDS011;66928;52.086;5.240;2023-05-15T09:40:39;39.81;;;32.21;;
50651;SDS011;66928;52.086;5.240;2023-05-15T09:42:15;41.4;;;31.6;;
50651;SDS011;66928;52.086;5.240;2023-05-15T09:43:51;39.81;;;30.6;;
50651;SDS011;66928;52.086;5.240;2023-05-15T09:47:06;37.6;;;30.0;;
50651;SDS011;66928;52.086;5.240;2023-05-15T09:48:43;35.21;;;28.8;;
50651;SDS011;66928;52.086;5.240;2023-05-15T09:53:33;31.0;;;27.7;;
50651;SDS011;66928;52.086;5.240;2023-05-15T09:55:13;32.0;;;27.5;;
50651;SDS011;66928;52.086;5.240;2023-05-15T09:56:50;34.0;;;28.4;;
50651;SDS011;66928;52.086;5.240;2023-05-15T09:58:26;30.0;;;26.4;;
50651;SDS011;66928;52.086;5.240;2023-05-15T10:01:42;29.5;;;25.7;;
50651;SDS011;66928;52.086;5.240;2023-05-15T10:03:20;32.21;;;26.8;;
50651;SDS011;66928;52.086;5.240;2023-05-15T10:04:58;29.9;;;26.2;;
50651;SDS011;66928;52.086;5.240;2023-05-15T10:08:11;27.8;;;24.7;;
50651;SDS011;66928;52.086;5.240;2023-05-15T10:09:47;29.3;;;25.1;;
50651;SDS011;66928;52.086;5.240;2023-05-15T10:11:23;29.4;;;25.7;;
50651;SDS011;66928;52.086;5.240;2023-05-15T10:13:01;29.1;;;26.0;;
50651;SDS011;66928;52.086;5.240;2023-05-15T10:16:13;30.4;;;27.1;;
50651;SDS011;66928;52.086;5.240;2023-05-15T10:17:50;30.7;;;25.3;;
50651;SDS011;66928;52.086;5.240;2023-05-15T10:19:27;32.4;;;27.1;;
50651;SDS011;66928;52.086;5.240;2023-05-15T10:22:44;27.3;;;23.5;;
50651;SDS011;66928;52.086;5.240;2023-05-15T10:24:22;26.8;;;23.1;;
50651;SDS011;66928;52.086;5.240;2023-05-15T10:26:06;24.7;;;21.9;;
50651;SDS011;66928;52.086;5.240;2023-05-15T10:27:49;29.3;;;23.9;;
50651;SDS011;66928;52.086;5.240;2023-05-15T10:31:04;25.7;;;22.7;;
50651;SDS011;66928;52.086;5.240;2023-05-15T10:32:42;25.2;;;21.8;;
50651;SDS011;66928;52.086;5.240;2023-05-15T10:34:19;26.6;;;23.1;;
50651;SDS011;66928;52.086;5.240;2023-05-15T10:37:33;27.2;;;23.1;;
50651;SDS011;66928;52.086;5.240;2023-05-15T10:39:10;28.7;;;24.0;;
50651;SDS011;66928;52.086;5.240;2023-05-15T10:40:48;28.3;;;22.5;;
50651;SDS011;66928;52.086;5.240;2023-05-15T10:42:27;27.9;;;23.6;;
50651;SDS011;66928;52.086;5.240;2023-05-15T10:45:41;29.6;;;24.3;;
50651;SDS011;66928;52.086;5.240;2023-05-15T10:47:18;30.6;;;25.4;;
50651;SDS011;66928;52.086;5.240;2023-05-15T10:48:56;30.6;;;25.1;;
50651;SDS011;66928;52.086;5.240;2023-05-15T10:52:12;30.4;;;26.0;;
50651;SDS011;66928;52.086;5.240;2023-05-15T10:53:48;34.1;;;27.7;;
50651;SDS011;66928;52.086;5.240;2023-05-15T10:55:25;35.6;;;29.3;;
50651;SDS011;66928;52.086;5.240;2023-05-15T10:57:01;33.0;;;27.3;;
50651;SDS011;66928;52.086;5.240;2023-05-15T11:02:20;31.6;;;26.7;;
50651;SDS011;66928;52.086;5.240;2023-05-15T11:04:04;33.5;;;27.8;;
50651;SDS011;66928;52.086;5.240;2023-05-15T11:06:16;30.9;;;25.6;;
50651;SDS011;66928;52.086;5.240;2023-05-15T11:08:36;31.5;;;26.8;;
50651;SDS011;66928;52.086;5.240;2023-05-15T11:10:46;32.1;;;27.0;;
50651;SDS011;66928;52.086;5.240;2023-05-15T11:12:23;35.21;;;29.4;;
50651;SDS011;66928;52.086;5.240;2023-05-15T11:14:14;29.2;;;24.6;;
50651;SDS011;66928;52.086;5.240;2023-05-15T11:15:50;29.9;;;25.3;;
50651;SDS011;66928;52.086;5.240;2023-05-15T11:19:20;32.6;;;26.6;;
50651;SDS011;66928;52.086;5.240;2023-05-15T11:21:12;30.9;;;26.4;;
50651;SDS011;66928;52.086;5.240;2023-05-15T11:22:56;30.5;;;25.0;;
50651;SDS011;66928;52.086;5.240;2023-05-15T11:24:46;29.3;;;24.7;;
50651;SDS011;66928;52.086;5.240;2023-05-15T11:26:31;28.4;;;24.7;;
50651;SDS011;66928;52.086;5.240;2023-05-15T11:30:04;28.5;;;24.6;;
50651;SDS011;66928;52.086;5.240;2023-05-15T11:31:49;29.3;;;25.2;;
50651;SDS011;66928;52.086;5.240;2023-05-15T11:33:28;29.3;;;25.1;;
50651;SDS011;66928;52.086;5.240;2023-05-15T11:35:07;28.3;;;24.7;;
50651;SDS011;66928;52.086;5.240;2023-05-15T11:36:45;28.7;;;25.7;;
50651;SDS011;66928;52.086;5.240;2023-05-15T11:39:59;32.8;;;27.4;;
50651;SDS011;66928;52.086;5.240;2023-05-15T11:41:35;30.5;;;27.0;;
50651;SDS011;66928;52.086;5.240;2023-05-15T11:43:19;29.6;;;25.9;;
50651;SDS011;66928;52.086;5.240;2023-05-15T11:44:57;32.1;;;26.2;;
50651;SDS011;66928;52.086;5.240;2023-05-15T11:48:12;30.2;;;26.9;;
50651;SDS011;66928;52.086;5.240;2023-05-15T11:49:50;28.5;;;25.4;;
50651;SDS011;66928;52.086;5.240;2023-05-15T11:51:27;28.5;;;25.0;;
50651;SDS011;66928;52.086;5.240;2023-05-15T11:54:42;29.9;;;26.6;;
50651;SDS011;66928;52.086;5.240;2023-05-15T11:56:18;27.5;;;24.6;;
50651;SDS011;66928;52.086;5.240;2023-05-15T11:57:56;28.5;;;25.5;;
50651;SDS011;66928;52.086;5.240;2023-05-15T12:01:09;27.8;;;24.5;;
50651;SDS011;66928;52.086;5.240;2023-05-15T12:02:45;26.3;;;22.7;;
50651;SDS011;66928;52.086;5.240;2023-05-15T12:04:22;23.2;;;20.8;;
50651;SDS011;66928;52.086;5.240;2023-05-15T12:05:58;24.5;;;21.9;;
50651;SDS011;66928;52.086;5.240;2023-05-15T12:09:13;24.0;;;21.4;;
50651;SDS011;66928;52.086;5.240;2023-05-15T12:10:50;23.3;;;20.9;;
50651;SDS011;66928;52.086;5.240;2023-05-15T12:12:27;22.0;;;19.7;;
50651;SDS011;66928;52.086;5.240;2023-05-15T12:15:40;22.7;;;20.2;;
50651;SDS011;66928;52.086;5.240;2023-05-15T12:17:18;22.6;;;20.3;;
50651;SDS011;66928;52.086;5.240;2023-05-15T12:18:55;21.9;;;19.61;;
50651;SDS011;66928;52.086;5.240;2023-05-15T12:20:32;21.1;;;18.91;;
50651;SDS011;66928;52.086;5.240;2023-05-15T12:23:49;21.4;;;19.2;;
50651;SDS011;66928;52.086;5.240;2023-05-15T12:25:26;20.3;;;18.11;;
50651;SDS011;66928;52.086;5.240;2023-05-15T12:27:02;17.5;;;15.7;;
50651;SDS011;66928;52.086;5.240;2023-05-15T12:30:15;16.5;;;14.8;;
50651;SDS011;66928;52.086;5.240;2023-05-15T12:31:52;17.91;;;16.0;;
50651;SDS011;66928;52.086;5.240;2023-05-15T12:33:29;14.8;;;13.3;;
50651;SDS011;66928;52.086;5.240;2023-05-15T12:36:42;15.9;;;14.3;;
50651;SDS011;66928;52.086;5.240;2023-05-15T12:38:18;17.61;;;15.8;;
50651;SDS011;66928;52.086;5.240;2023-05-15T12:39:58;16.8;;;14.5;;
50651;SDS011;66928;52.086;5.240;2023-05-15T12:41:37;16.3;;;14.5;;
50651;SDS011;66928;52.086;5.240;2023-05-15T12:44:49;16.9;;;15.1;;
50651;SDS011;66928;52.086;5.240;2023-05-15T12:46:28;16.11;;;14.4;;
50651;SDS011;66928;52.086;5.240;2023-05-15T12:48:05;15.1;;;13.6;;
50651;SDS011;66928;52.086;5.240;2023-05-15T12:51:18;17.3;;;13.7;;
50651;SDS011;66928;52.086;5.240;2023-05-15T12:52:57;14.6;;;13.1;;
50651;SDS011;66928;52.086;5.240;2023-05-15T12:54:37;14.6;;;13.1;;
50651;SDS011;66928;52.086;5.240;2023-05-15T12:56:14;13.3;;;10.7;;
50651;SDS011;66928;52.086;5.240;2023-05-15T12:59:27;11.7;;;10.1;;
50651;SDS011;66928;52.086;5.240;2023-05-15T13:01:04;10.1;;;8.9;;
50651;SDS011;66928;52.086;5.240;2023-05-15T13:02:41;11.0;;;8.2;;
50651;SDS011;66928;52.086;5.240;2023-05-15T13:05:54;10.1;;;8.0;;
50651;SDS011;66928;52.086;5.240;2023-05-15T13:07:30;10.7;;;8.6;;
50651;SDS011;66928;52.086;5.240;2023-05-15T13:09:06;10.1;;;7.9;;
50651;SDS011;66928;52.086;5.240;2023-05-15T13:10:43;11.7;;;8.71;;
50651;SDS011;66928;52.086;5.240;2023-05-15T13:13:56;11.8;;;9.9;;
50651;SDS011;66928;52.086;5.240;2023-05-15T13:15:33;14.2;;;10.3;;
50651;SDS011;66928;52.086;5.240;2023-05-15T13:17:13;16.11;;;10.4;;
50651;SDS011;66928;52.086;5.240;2023-05-15T13:20:25;16.3;;;10.9;;
50651;SDS011;66928;52.086;5.240;2023-05-15T13:22:03;16.11;;;11.6;;
50651;SDS011;66928;52.086;5.240;2023-05-15T13:23:39;16.61;;;12.2;;
50651;SDS011;66928;52.086;5.240;2023-05-15T13:26:52;15.7;;;11.8;;
50651;SDS011;66928;52.086;5.240;2023-05-15T13:28:28;16.8;;;12.2;;
50651;SDS011;66928;52.086;5.240;2023-05-15T13:30:07;15.0;;;11.8;;
50651;SDS011;66928;52.086;5.240;2023-05-15T13:31:44;14.9;;;11.7;;
50651;SDS011;66928;52.086;5.240;2023-05-15T13:34:56;15.1;;;11.1;;
50651;SDS011;66928;52.086;5.240;2023-05-15T13:38:08;14.7;;;10.4;;
50651;SDS011;66928;52.086;5.240;2023-05-15T13:41:21;12.9;;;10.1;;
50651;SDS011;66928;52.086;5.240;2023-05-15T13:42:57;10.9;;;8.9;;
50651;SDS011;66928;52.086;5.240;2023-05-15T13:44:33;10.3;;;8.5;;
50651;SDS011;66928;52.086;5.240;2023-05-15T13:47:45;10.21;;;7.8;;
50651;SDS011;66928;52.086;5.240;2023-05-15T13:49:22;9.81;;;7.9;;
50651;SDS011;66928;52.086;5.240;2023-05-15T13:50:58;10.1;;;7.8;;
50651;SDS011;66928;52.086;5.240;2023-05-15T13:52:34;9.1;;;7.4;;
50651;SDS011;66928;52.086;5.240;2023-05-15T13:55:47;10.4;;;7.4;;
50651;SDS011;66928;52.086;5.240;2023-05-15T13:57:23;8.2;;;6.9;;
50651;SDS011;66928;52.086;5.240;2023-05-15T13:59:00;8.71;;;6.1;;
50651;SDS011;66928;52.086;5.240;2023-05-15T14:02:12;7.3;;;6.0;;
50651;SDS011;66928;52.086;5.240;2023-05-15T14:03:48;8.0;;;6.0;;
50651;SDS011;66928;52.086;5.240;2023-05-15T14:05:24;8.0;;;5.9;;
50651;SDS011;66928;52.086;5.240;2023-05-15T14:08:37;8.0;;;5.9;;
50651;SDS011;66928;52.086;5.240;2023-05-15T14:10:13;8.1;;;6.4;;
50651;SDS011;66928;52.086;5.240;2023-05-15T14:11:49;9.1;;;6.5;;
50651;SDS011;66928;52.086;5.240;2023-05-15T14:15:01;8.31;;;5.8;;
50651;SDS011;66928;52.086;5.240;2023-05-15T14:16:38;6.9;;;5.5;;
50651;SDS011;66928;52.086;5.240;2023-05-15T14:18:15;8.1;;;4.91;;
50651;SDS011;66928;52.086;5.240;2023-05-15T14:19:51;8.2;;;5.0;;
50651;SDS011;66928;52.086;5.240;2023-05-15T14:23:03;6.8;;;4.8;;
50651;SDS011;66928;52.086;5.240;2023-05-15T14:24:39;6.4;;;4.91;;
50651;SDS011;66928;52.086;5.240;2023-05-15T14:26:15;8.71;;;4.91;;
50651;SDS011;66928;52.086;5.240;2023-05-15T14:29:28;7.8;;;4.91;;
50651;SDS011;66928;52.086;5.240;2023-05-15T14:31:04;7.3;;;4.3;;
50651;SDS011;66928;52.086;5.240;2023-05-15T14:32:40;8.2;;;4.41;;
50651;SDS011;66928;52.086;5.240;2023-05-15T14:35:53;7.9;;;4.1;;
50651;SDS011;66928;52.086;5.240;2023-05-15T14:37:30;7.1;;;4.1;;
50651;SDS011;66928;52.086;5.240;2023-05-15T14:39:06;6.9;;;3.9;;
50651;SDS011;66928;52.086;5.240;2023-05-15T14:40:42;7.7;;;4.0;;
50651;SDS011;66928;52.086;5.240;2023-05-15T14:43:55;7.8;;;3.8;;
50651;SDS011;66928;52.086;5.240;2023-05-15T14:45:31;7.9;;;4.3;;
50651;SDS011;66928;52.086;5.240;2023-05-15T14:47:08;7.2;;;4.3;;
50651;SDS011;66928;52.086;5.240;2023-05-15T14:50:22;8.81;;;4.61;;
50651;SDS011;66928;52.086;5.240;2023-05-15T14:51:58;8.1;;;4.3;;
50651;SDS011;66928;52.086;5.240;2023-05-15T14:53:34;7.8;;;3.7;;
50651;SDS011;66928;52.086;5.240;2023-05-15T14:56:47;5.4;;;3.9;;
50651;SDS011;66928;52.086;5.240;2023-05-15T14:58:23;7.1;;;3.8;;
50651;SDS011;66928;52.086;5.240;2023-05-15T14:59:59;5.6;;;3.7;;
50651;SDS011;66928;52.086;5.240;2023-05-15T15:01:35;4.91;;;3.4;;
50651;SDS011;66928;52.086;5.240;2023-05-15T15:04:47;6.0;;;3.7;;
50651;SDS011;66928;52.086;5.240;2023-05-15T15:06:24;5.11;;;3.5;;
50651;SDS011;66928;52.086;5.240;2023-05-15T15:08:01;4.61;;;3.3;;
50651;SDS011;66928;52.086;5.240;2023-05-15T15:11:14;5.9;;;3.2;;
50651;SDS011;66928;52.086;5.240;2023-05-15T15:12:50;5.2;;;3.0;;
50651;SDS011;66928;52.086;5.240;2023-05-15T15:14:26;5.5;;;3.2;;
50651;SDS011;66928;52.086;5.240;2023-05-15T15:17:39;4.91;;;3.0;;
50651;SDS011;66928;52.086;5.240;2023-05-15T15:19:15;5.4;;;3.0;;
50651;SDS011;66928;52.086;5.240;2023-05-15T15:20:51;3.9;;;3.0;;
50651;SDS011;66928;52.086;5.240;2023-05-15T15:24:04;2.8;;;2.5;;
50651;SDS011;66928;52.086;5.240;2023-05-15T15:25:40;3.4;;;2.6;;
50651;SDS011;66928;52.086;5.240;2023-05-15T15:27:17;4.61;;;2.7;;
50651;SDS011;66928;52.086;5.240;2023-05-15T15:28:53;3.6;;;2.31;;
50651;SDS011;66928;52.086;5.240;2023-05-15T15:32:05;4.0;;;2.8;;
50651;SDS011;66928;52.086;5.240;2023-05-15T15:33:41;3.4;;;2.6;;
50651;SDS011;66928;52.086;5.240;2023-05-15T15:35:18;2.9;;;2.6;;
50651;SDS011;66928;52.086;5.240;2023-05-15T15:38:31;4.1;;;2.8;;
50651;SDS011;66928;52.086;5.240;2023-05-15T15:40:07;3.6;;;3.1;;
50651;SDS011;66928;52.086;5.240;2023-05-15T15:41:43;5.4;;;3.1;;
50651;SDS011;66928;52.086;5.240;2023-05-15T15:44:56;5.8;;;3.4;;
50651;SDS011;66928;52.086;5.240;2023-05-15T15:46:33;4.7;;;3.1;;
50651;SDS011;66928;52.086;5.240;2023-05-15T15:48:09;4.7;;;3.3;;
50651;SDS011;66928;52.086;5.240;2023-05-15T15:49:45;6.4;;;3.8;;
50651;SDS011;66928;52.086;5.240;2023-05-15T15:52:57;5.8;;;4.0;;
50651;SDS011;66928;52.086;5.240;2023-05-15T15:54:34;6.3;;;4.0;;
50651;SDS011;66928;52.086;5.240;2023-05-15T15:56:10;6.4;;;3.8;;
50651;SDS011;66928;52.086;5.240;2023-05-15T15:59:22;8.0;;;4.0;;
50651;SDS011;66928;52.086;5.240;2023-05-15T16:00:58;5.2;;;3.5;;
50651;SDS011;66928;52.086;5.240;2023-05-15T16:02:34;7.8;;;3.8;;
50651;SDS011;66928;52.086;5.240;2023-05-15T16:05:47;5.6;;;3.4;;
50651;SDS011;66928;52.086;5.240;2023-05-15T16:07:23;5.8;;;3.4;;
50651;SDS011;66928;52.086;5.240;2023-05-15T16:10:37;6.2;;;3.4;;
50651;SDS011;66928;52.086;5.240;2023-05-15T16:13:50;6.5;;;3.9;;
50651;SDS011;66928;52.086;5.240;2023-05-15T16:15:27;10.9;;;3.8;;
50651;SDS011;66928;52.086;5.240;2023-05-15T16:17:03;7.9;;;4.41;;
50651;SDS011;66928;52.086;5.240;2023-05-15T16:20:15;8.31;;;4.91;;
50651;SDS011;66928;52.086;5.240;2023-05-15T16:21:51;7.2;;;5.0;;
50651;SDS011;66928;52.086;5.240;2023-05-15T16:23:31;10.4;;;5.5;;
50651;SDS011;66928;52.086;5.240;2023-05-15T16:26:44;9.21;;;5.9;;
50651;SDS011;66928;52.086;5.240;2023-05-15T16:28:20;10.4;;;5.7;;
50651;SDS011;66928;52.086;5.240;2023-05-15T16:29:56;8.9;;;5.9;;
50651;SDS011;66928;52.086;5.240;2023-05-15T16:31:32;9.1;;;5.8;;
50651;SDS011;66928;52.086;5.240;2023-05-15T16:34:45;9.71;;;5.9;;
50651;SDS011;66928;52.086;5.240;2023-05-15T16:36:21;8.4;;;5.7;;
50651;SDS011;66928;52.086;5.240;2023-05-15T16:37:57;8.31;;;5.11;;
50651;SDS011;66928;52.086;5.240;2023-05-15T16:41:10;9.9;;;5.6;;
50651;SDS011;66928;52.086;5.240;2023-05-15T16:42:46;8.1;;;4.91;;
50651;SDS011;66928;52.086;5.240;2023-05-15T16:44:23;6.3;;;4.5;;
50651;SDS011;66928;52.086;5.240;2023-05-15T16:47:35;8.1;;;4.41;;
50651;SDS011;66928;52.086;5.240;2023-05-15T16:49:12;5.0;;;3.5;;
50651;SDS011;66928;52.086;5.240;2023-05-15T16:50:48;5.0;;;3.5;;
50651;SDS011;66928;52.086;5.240;2023-05-15T16:54:01;5.9;;;3.6;;
50651;SDS011;66928;52.086;5.240;2023-05-15T16:55:38;4.91;;;3.2;;
50651;SDS011;66928;52.086;5.240;2023-05-15T16:57:14;7.3;;;3.1;;
50651;SDS011;66928;52.086;5.240;2023-05-15T16:58:52;6.4;;;2.9;;
50651;SDS011;66928;52.086;5.240;2023-05-15T17:02:05;7.7;;;3.4;;
50651;SDS011;66928;52.086;5.240;2023-05-15T17:03:42;4.91;;;2.8;;
50651;SDS011;66928;52.086;5.240;2023-05-15T17:05:18;7.7;;;3.3;;
50651;SDS011;66928;52.086;5.240;2023-05-15T17:08:30;7.2;;;3.0;;
50651;SDS011;66928;52.086;5.240;2023-05-15T17:10:07;7.2;;;3.1;;
50651;SDS011;66928;52.086;5.240;2023-05-15T17:11:43;8.9;;;2.9;;
50651;SDS011;66928;52.086;5.240;2023-05-15T17:14:56;6.1;;;2.7;;
50651;SDS011;66928;52.086;5.240;2023-05-15T17:16:32;8.2;;;3.0;;
50651;SDS011;66928;52.086;5.240;2023-05-15T17:18:08;6.6;;;2.8;;
50651;SDS011;66928;52.086;5.240;2023-05-15T17:19:44;5.8;;;2.7;;
50651;SDS011;66928;52.086;5.240;2023-05-15T17:22:57;5.3;;;2.6;;
50651;SDS011;66928;52.086;5.240;2023-05-15T17:24:33;6.8;;;2.8;;
50651;SDS011;66928;52.086;5.240;2023-05-15T17:26:09;6.3;;;2.7;;
50651;SDS011;66928;52.086;5.240;2023-05-15T17:29:22;7.5;;;2.9;;
50651;SDS011;66928;52.086;5.240;2023-05-15T17:30:58;9.0;;;3.0;;
50651;SDS011;66928;52.086;5.240;2023-05-15T17:32:35;6.9;;;2.9;;
50651;SDS011;66928;52.086;5.240;2023-05-15T17:35:47;6.5;;;2.7;;
50651;SDS011;66928;52.086;5.240;2023-05-15T17:37:23;6.8;;;2.8;;
50651;SDS011;66928;52.086;5.240;2023-05-15T17:38:59;9.4;;;3.0;;
50651;SDS011;66928;52.086;5.240;2023-05-15T17:40:35;9.4;;;3.3;;
50651;SDS011;66928;52.086;5.240;2023-05-15T17:43:48;7.5;;;3.1;;
50651;SDS011;66928;52.086;5.240;2023-05-15T17:45:24;10.0;;;3.4;;
50651;SDS011;66928;52.086;5.240;2023-05-15T17:47:00;11.0;;;3.4;;
50651;SDS011;66928;52.086;5.240;2023-05-15T17:50:12;13.2;;;3.6;;
50651;SDS011;66928;52.086;5.240;2023-05-15T17:51:49;7.6;;;3.3;;
50651;SDS011;66928;52.086;5.240;2023-05-15T17:53:25;10.9;;;3.5;;
50651;SDS011;66928;52.086;5.240;2023-05-15T17:56:37;10.9;;;3.5;;
50651;SDS011;66928;52.086;5.240;2023-05-15T17:58:13;8.0;;;3.3;;
50651;SDS011;66928;52.086;5.240;2023-05-15T17:59:49;10.3;;;3.4;;
50651;SDS011;66928;52.086;5.240;2023-05-15T18:03:01;9.81;;;3.5;;
50651;SDS011;66928;52.086;5.240;2023-05-15T18:04:38;11.4;;;3.9;;
50651;SDS011;66928;52.086;5.240;2023-05-15T18:06:14;11.1;;;3.7;;
50651;SDS011;66928;52.086;5.240;2023-05-15T18:07:50;14.1;;;4.2;;
50651;SDS011;66928;52.086;5.240;2023-05-15T18:11:02;8.6;;;3.5;;
50651;SDS011;66928;52.086;5.240;2023-05-15T18:12:38;15.4;;;4.1;;